createdAt,value
2017-04-18T00:00:03.235Z,1006.04
2017-04-18T00:15:03.204Z,1005.97
2017-04-18T00:30:02.492Z,1006.03
2017-04-18T00:45:03.315Z,1006
2017-04-18T01:00:02.686Z,1006.04
2017-04-18T01:15:03.051Z,1006.07
2017-04-18T01:30:02.750Z,1006.2
2017-04-18T01:45:03.543Z,1006.33
2017-04-18T02:00:02.598Z,1006.49
2017-04-18T02:15:02.933Z,1006.52
2017-04-18T02:30:03.077Z,1006.69
2017-04-18T02:45:03.176Z,1006.76
2017-04-18T03:00:03.049Z,1006.75
2017-04-18T03:15:02.865Z,1006.8
2017-04-18T03:30:03.047Z,1006.95
2017-04-18T03:45:03.376Z,1007.06
2017-04-18T04:00:03.119Z,1007.32
2017-04-18T04:15:02.649Z,1007.35
2017-04-18T04:30:02.838Z,1007.55
2017-04-18T04:45:03.407Z,1007.68
2017-04-18T05:00:03.273Z,1007.88
2017-04-18T05:15:03.218Z,1008.06
2017-04-18T05:30:02.591Z,1008.26
2017-04-18T05:45:02.622Z,1008.63
2017-04-18T06:00:03.581Z,1008.65
2017-04-18T06:15:02.752Z,1008.96
2017-04-18T06:30:02.764Z,1009.09
2017-04-18T06:45:02.926Z,1009.26
2017-04-18T07:00:03.172Z,1009.56
2017-04-18T07:15:02.760Z,1009.85
2017-04-18T07:30:02.999Z,1009.93
2017-04-18T07:45:02.438Z,1010.2
2017-04-18T08:00:02.817Z,1010.46
2017-04-18T08:15:03.219Z,1010.62
2017-04-18T08:30:03.573Z,1010.93
2017-04-18T08:45:03.347Z,1011.03
2017-04-18T09:00:02.861Z,1011.29
2017-04-18T09:15:02.946Z,1011.4
2017-04-18T09:30:02.713Z,1011.56
2017-04-18T09:45:03.190Z,1011.83
2017-04-18T10:00:03.352Z,1011.89
2017-04-18T10:15:02.874Z,1012.05
2017-04-18T10:30:02.895Z,1012.13
2017-04-18T10:45:03.138Z,1012.32
2017-04-18T11:00:03.185Z,1012.8
2017-04-18T11:15:03.004Z,1013.03
2017-04-18T11:30:03.297Z,1013.36
2017-04-18T11:45:03.214Z,1013.66
2017-04-18T12:00:02.890Z,1013.69
2017-04-18T12:15:03.301Z,1013.79
2017-04-18T12:30:03.000Z,1014.02
2017-04-18T12:45:03.000Z,1014.21
2017-04-18T13:00:02.801Z,1014.19
2017-04-18T13:15:02.809Z,1014.2
2017-04-18T13:30:02.891Z,1014.29
2017-04-18T13:45:02.980Z,1014.31
2017-04-18T14:00:03.222Z,1014.35
2017-04-18T14:15:02.539Z,1014.4
2017-04-18T14:30:02.574Z,1014.54
2017-04-18T14:45:02.660Z,1014.6
2017-04-18T15:00:02.946Z,1014.59
2017-04-18T15:15:02.490Z,1014.72
2017-04-18T15:30:03.439Z,1014.89
2017-04-18T15:45:03.291Z,1014.91
2017-04-18T16:00:02.762Z,1015.13
2017-04-18T16:15:03.145Z,1015.28
2017-04-18T16:30:03.070Z,1015.38
2017-04-18T16:45:02.663Z,1015.61
2017-04-18T17:00:03.601Z,1015.8
2017-04-18T17:15:02.467Z,1016.02
2017-04-18T17:30:02.610Z,1016.37
2017-04-18T17:45:02.730Z,1016.5
2017-04-18T18:00:02.773Z,1016.68
2017-04-18T18:15:02.971Z,1016.93
2017-04-18T18:30:02.808Z,1017.22
2017-04-18T18:45:02.519Z,1017.34
2017-04-18T19:00:03.486Z,1017.64
2017-04-18T19:15:03.353Z,1017.82
2017-04-18T19:30:03.031Z,1018.17
2017-04-18T19:45:02.758Z,1018.21
2017-04-18T20:00:03.069Z,1018.32
2017-04-18T20:15:02.649Z,1018.45
2017-04-18T20:30:03.475Z,1018.56
2017-04-18T20:45:03.054Z,1018.65
2017-04-18T21:00:02.777Z,1018.78
2017-04-18T21:15:03.299Z,1018.95
2017-04-18T21:30:02.951Z,1018.97
2017-04-18T21:45:03.188Z,1019.22
2017-04-18T22:00:03.204Z,1019.28
2017-04-18T22:15:03.264Z,1019.37
2017-04-18T22:30:02.676Z,1019.6
2017-04-18T22:45:03.076Z,1019.68
2017-04-18T23:00:02.661Z,1019.65
2017-04-18T23:15:02.798Z,1019.69
2017-04-18T23:30:03.090Z,1019.69
2017-04-18T23:45:02.472Z,1019.77
